Birmingham, New Jersey
Current Conditions -  °F | °C
As of 1:58 PM on Friday 31 Oct 2014 (Local Time) from KWRI Reporting Station
Overcast Overcast  
Wind Chill: 52°   Ceiling: 2900
Heat Index: 52°   Visibility: 10mi
Dew Point: 39°   Wind: 8mph
Humidity: 63%   Direction: 10°N
Pressure: 29.89"   Gusts: NA
Location:  39.98°N, 74.71°W
Report Text: KWRI 311758Z AUTO 01007KT 10SM BKN029 BKN040 OVC055 11/04 A2989 RMK AO2 SLP126 T01090040 10109 20019 57021
Loading
Personal Weather Stations






























Interactive Weather Map
Tropical Storm Tracking
New forecast layout! Learn more

10-Day Weather Forecast

Advertisements
Track Severe Weather on mobile